Time;durP1;ratioP1;P1;durP2;ratioP2;P2;SDS_P1;SDS_P2;PMS_P1;PMS_P2;Temp;Humidity;BMP_temperature;BMP_pressure;BME280_temperature;BME280_humidity;BME280_pressure;Samples;Min_cycle;Max_cycle;Signal;HPM_P1;HPM_P2
2023/01/24 00:01:49;;;;;;;1.00;1.00;;;;;;;23.06;31.34;100041.70;1888882;74;28084;-61
2023/01/24 00:04:37;;;;;;;2.37;1.50;;;;;;;23.02;31.37;100048.17;1877814;75;28141;-61
2023/01/24 00:07:25;;;;;;;1.17;1.17;;;;;;;22.99;31.40;100042.28;1888418;75;28875;-61
2023/01/24 00:10:14;;;;;;;1.20;1.10;;;;;;;22.95;31.41;100046.02;1867579;76;28180;-61
2023/01/24 00:13:03;;;;;;;0.88;0.88;;;;;;;22.93;31.44;100027.60;1887805;75;28247;-61
2023/01/24 00:15:51;;;;;;;1.25;1.25;;;;;;;22.91;31.44;100035.21;1875626;75;28170;-61
2023/01/24 00:18:40;;;;;;;1.05;1.05;;;;;;;22.89;31.47;100040.08;1889041;74;28206;-62
2023/01/24 00:21:28;;;;;;;1.15;1.15;;;;;;;22.86;31.48;100040.52;1887316;75;28250;-63
2023/01/24 00:24:17;;;;;;;1.20;1.20;;;;;;;22.86;31.50;100043.25;1899522;75;28295;-62
2023/01/24 00:27:05;;;;;;;1.20;1.20;;;;;;;22.81;31.50;100041.71;1888614;75;28102;-62
2023/01/24 00:29:54;;;;;;;1.50;1.40;;;;;;;22.80;31.54;100029.06;1864926;76;28369;-61
2023/01/24 00:32:42;;;;;;;1.10;1.10;;;;;;;22.79;31.55;100038.36;1870031;75;28097;-61
2023/01/24 00:35:31;;;;;;;1.15;1.15;;;;;;;22.76;31.57;100030.58;1867976;76;28192;-61
2023/01/24 00:38:21;;;;;;;1.20;1.20;;;;;;;22.76;31.57;100033.84;1870638;75;28284;-61
2023/01/24 00:41:11;;;;;;;1.07;1.00;;;;;;;22.74;31.61;100041.45;1857442;75;28256;-61
2023/01/24 00:43:59;;;;;;;1.20;1.20;;;;;;;22.71;31.63;100046.02;1879207;75;28640;-60
2023/01/24 00:46:48;;;;;;;1.40;1.30;;;;;;;22.67;31.67;100057.94;1872239;75;28090;-60
2023/01/24 00:49:36;;;;;;;1.22;1.22;;;;;;;22.68;31.65;100045.38;1891035;75;38886;-61
2023/01/24 00:52:25;;;;;;;1.20;1.20;;;;;;;22.67;31.63;100042.88;1871104;75;32143;-61
2023/01/24 00:55:13;;;;;;;1.30;1.20;;;;;;;22.67;31.67;100049.19;1875561;75;28191;-60
2023/01/24 00:58:01;;;;;;;1.10;1.10;;;;;;;22.65;31.65;100043.63;1876364;74;28154;-60
2023/01/24 01:00:50;;;;;;;1.20;1.20;;;;;;;22.66;31.65;100054.34;1871412;75;28302;-61
2023/01/24 01:03:38;;;;;;;1.20;1.20;;;;;;;22.63;31.68;100055.34;1861569;75;28604;-60
2023/01/24 01:06:27;;;;;;;1.35;1.25;;;;;;;22.62;31.66;100041.33;1867940;76;28179;-61
2023/01/24 01:09:15;;;;;;;1.02;1.02;;;;;;;22.60;31.68;100049.77;1881085;75;28231;-60
2023/01/24 01:12:04;;;;;;;1.17;1.17;;;;;;;22.58;31.70;100048.28;1869636;74;28293;-61
2023/01/24 01:14:52;;;;;;;1.10;1.10;;;;;;;;;;1890945;75;28228;-60
2023/01/24 01:17:39;;;;;;;1.25;1.25;;;;;;;;;;1863741;76;28340;-61
2023/01/24 01:20:27;;;;;;;1.20;1.20;;;;;;;22.58;31.67;100063.34;1867461;76;28263;-61
2023/01/24 01:23:15;;;;;;;1.40;1.30;;;;;;;22.56;31.71;100062.72;1851123;76;28341;-60
2023/01/24 01:26:06;;;;;;;1.30;1.30;;;;;;;22.57;31.70;100069.86;1873396;75;28499;-61
2023/01/24 01:28:54;;;;;;;1.30;1.30;;;;;;;22.54;31.72;100074.43;1871543;76;28114;-61
2023/01/24 01:31:43;;;;;;;1.07;1.07;;;;;;;22.52;31.70;100066.97;1850935;76;28200;-61
2023/01/24 01:34:32;;;;;;;1.30;1.30;;;;;;;22.51;31.75;100081.18;1869912;76;28142;-62
2023/01/24 01:37:20;;;;;;;1.17;1.17;;;;;;;22.51;31.76;100089.39;1858507;76;28331;-62
2023/01/24 01:40:10;;;;;;;1.27;1.27;;;;;;;22.51;31.74;100083.08;1852454;76;28258;-60
2023/01/24 01:42:58;;;;;;;1.40;1.30;;;;;;;22.48;31.73;100083.50;1865421;76;28276;-61
2023/01/24 01:45:50;;;;;;;1.20;1.20;;;;;;;22.51;31.75;100089.91;1873311;76;28164;-63
2023/01/24 01:48:47;;;;;;;1.40;1.25;;;;;;;22.51;31.73;100091.28;1873235;76;28246;-60
2023/01/24 01:51:47;;;;;;;1.37;1.37;;;;;;;22.46;31.71;100091.10;1854898;76;28239;-60
2023/01/24 01:54:39;;;;;;;1.30;1.20;;;;;;;22.43;31.84;100091.00;1861551;76;28184;-60
2023/01/24 01:57:30;;;;;;;1.40;1.30;;;;;;;22.42;31.88;100090.72;1850317;76;28273;-61
2023/01/24 02:00:21;;;;;;;1.30;1.30;;;;;;;22.44;31.82;100085.86;1870526;76;28190;-61
2023/01/24 02:06:46;;;;;;;1.30;1.30;;;;;;;22.42;31.87;100101.66;1868783;76;28271;-61
2023/01/24 02:09:46;;;;;;;1.50;1.40;;;;;;;22.43;31.84;100099.22;1869052;76;28172;-61
2023/01/24 02:12:40;;;;;;;1.12;1.12;;;;;;;22.39;31.79;100106.20;1865126;76;28180;-61
2023/01/24 02:18:37;;;;;;;1.20;1.20;;;;;;;22.39;31.81;100104.83;1862529;76;28577;-61
2023/01/24 02:21:25;;;;;;;1.40;1.30;;;;;;;22.37;31.88;100110.20;1875014;74;28305;-61
2023/01/24 02:24:20;;;;;;;1.40;1.30;;;;;;;22.37;31.83;100122.00;1888297;74;28179;-61
2023/01/24 02:27:08;;;;;;;1.30;1.30;;;;;;;22.40;31.81;100125.69;1859509;76;28262;-61
2023/01/24 02:29:57;;;;;;;1.27;1.27;;;;;;;22.42;31.77;100121.34;1870461;76;28267;-63
2023/01/24 02:32:47;;;;;;;1.20;1.20;;;;;;;22.42;31.77;100124.09;1870907;76;28218;-61
2023/01/24 02:35:35;;;;;;;2.25;1.40;;;;;;;22.42;31.77;100110.40;1871940;76;31149;-62
2023/01/24 02:38:26;;;;;;;1.40;1.40;;;;;;;22.42;31.69;100130.93;1869996;76;28318;-62
2023/01/24 02:41:17;;;;;;;1.40;1.40;;;;;;;22.42;31.71;100130.41;1866169;76;28260;-62
2023/01/24 02:44:08;;;;;;;1.27;1.27;;;;;;;22.41;31.71;100128.72;1881304;74;28214;-61
2023/01/24 02:46:56;;;;;;;1.20;1.20;;;;;;;22.40;31.71;100131.68;1858014;76;28301;-60
2023/01/24 02:49:45;;;;;;;1.17;1.17;;;;;;;22.41;31.71;100134.71;1874888;76;28179;-61
2023/01/24 02:58:48;;;;;;;1.20;1.20;;;;;;;22.36;31.74;100135.89;1868029;74;28344;-60
2023/01/24 03:01:37;;;;;;;1.30;1.30;;;;;;;22.34;31.81;100135.27;1843713;76;28175;-62
2023/01/24 03:04:26;;;;;;;1.20;1.20;;;;;;;22.34;31.78;100141.59;1866806;74;28261;-62
2023/01/24 03:07:14;;;;;;;1.30;1.30;;;;;;;22.35;31.80;100141.91;1874461;76;28257;-62
2023/01/24 03:10:05;;;;;;;1.22;1.22;;;;;;;22.36;31.77;100139.99;1858836;76;28226;-62
2023/01/24 03:34:48;;;;;;;1.20;1.20;;;;;;;22.23;31.84;100167.42;1866641;76;28324;-60
2023/01/24 03:40:46;;;;;;;1.45;1.40;;;;;;;22.30;31.81;100169.61;1849066;76;28386;-61
2023/01/24 03:43:35;;;;;;;1.30;1.30;;;;;;;22.27;31.86;100175.51;1860075;76;28263;-61
2023/01/24 03:46:23;;;;;;;1.07;1.07;;;;;;;22.30;31.79;100173.72;1841921;77;28303;-61
2023/01/24 03:49:12;;;;;;;1.30;1.30;;;;;;;22.32;31.82;100166.13;1864455;76;38548;-60
2023/01/24 03:55:10;;;;;;;1.27;1.27;;;;;;;22.33;31.72;100181.50;1866123;76;28215;-61
2023/01/24 03:57:58;;;;;;;2.52;1.62;;;;;;;22.29;31.74;100176.98;1856605;75;28212;-61
2023/01/24 04:00:48;;;;;;;1.40;1.40;;;;;;;22.33;31.68;100182.87;1850047;76;32136;-60
2023/01/24 04:03:41;;;;;;;1.60;1.50;;;;;;;22.34;31.62;100173.59;1849663;76;28328;-60
2023/01/24 04:06:29;;;;;;;1.60;1.50;;;;;;;22.34;31.62;100184.53;1866520;76;28254;-60
2023/01/24 04:09:18;;;;;;;1.20;1.20;;;;;;;22.34;31.60;100181.80;1852775;76;28367;-61
2023/01/24 04:12:08;;;;;;;1.60;1.50;;;;;;;22.35;31.58;100183.50;1845731;75;28381;-61
2023/01/24 04:14:57;;;;;;;1.55;1.45;;;;;;;22.34;31.57;100184.53;1844382;76;28350;-60
2023/01/24 04:17:46;;;;;;;1.40;1.30;;;;;;;22.32;31.53;100196.23;1866545;75;28283;-60
2023/01/24 04:20:37;;;;;;;1.47;1.47;;;;;;;22.36;31.48;100201.58;1788607;79;28419;-60
2023/01/24 04:23:26;;;;;;;1.70;1.60;;;;;;;22.36;31.46;100185.16;1869260;75;28211;-59
2023/01/24 04:26:14;;;;;;;1.43;1.40;;;;;;;22.26;31.44;100167.85;1867319;75;28301;-61
2023/01/24 04:29:02;;;;;;;1.57;1.47;;;;;;;22.35;31.51;100200.77;1861983;75;28260;-62
2023/01/24 04:31:51;;;;;;;1.60;1.50;;;;;;;22.33;31.48;100200.14;1853142;75;28219;-62
2023/01/24 04:34:51;;;;;;;1.40;1.40;;;;;;;22.32;31.51;100212.14;1850169;75;28295;-60
2023/01/24 04:37:41;;;;;;;1.47;1.37;;;;;;;22.30;31.46;100206.04;1862582;76;28261;-61
2023/01/24 04:40:31;;;;;;;1.95;1.67;;;;;;;22.32;31.41;100205.29;1831784;76;28262;-61
2023/01/24 04:43:20;;;;;;;1.30;1.20;;;;;;;22.31;31.43;100210.99;1788198;79;28261;-61
2023/01/24 04:46:10;;;;;;;1.42;1.42;;;;;;;22.33;31.39;100211.09;1849326;75;28304;-62
2023/01/24 04:49:03;;;;;;;1.50;1.40;;;;;;;22.30;31.39;100217.51;1866035;75;28955;-61
2023/01/24 04:51:59;;;;;;;1.42;1.37;;;;;;;22.31;31.42;100210.99;1862486;75;28219;-61
2023/01/24 04:54:50;;;;;;;1.30;1.30;;;;;;;22.31;31.40;100211.81;1865572;76;28229;-61
2023/01/24 04:57:39;;;;;;;1.42;1.40;;;;;;;22.31;31.39;100209.63;1857611;75;28185;-61
2023/01/24 05:00:27;;;;;;;1.40;1.40;;;;;;;22.33;31.36;100206.14;1858017;76;28258;-60
2023/01/24 05:03:17;;;;;;;1.60;1.50;;;;;;;22.23;31.39;100209.33;1856440;75;28292;-61
2023/01/24 05:06:06;;;;;;;1.60;1.50;;;;;;;22.11;31.50;100221.13;1854276;76;28296;-60
2023/01/24 05:08:56;;;;;;;1.65;1.55;;;;;;;22.06;31.54;100217.67;1850408;76;28258;-62
2023/01/24 05:11:46;;;;;;;1.37;1.32;;;;;;;22.04;31.63;100221.15;1851152;75;28176;-60
2023/01/24 05:14:35;;;;;;;1.40;1.40;;;;;;;22.02;31.69;100224.63;1867823;75;28272;-60
2023/01/24 05:17:24;;;;;;;1.55;1.45;;;;;;;22.03;31.69;100220.00;1868833;76;28285;-60
2023/01/24 05:20:14;;;;;;;1.57;1.50;;;;;;;22.03;31.70;100217.27;1866914;74;28240;-60
2023/01/24 05:23:02;;;;;;;1.40;1.30;;;;;;;22.06;31.69;100227.77;1880672;74;28127;-60
2023/01/24 05:25:52;;;;;;;1.60;1.50;;;;;;;22.08;31.66;100224.31;1882748;75;28289;-61
2023/01/24 05:28:41;;;;;;;1.60;1.50;;;;;;;22.07;31.63;100218.52;1904155;74;28281;-61
2023/01/24 05:31:29;;;;;;;1.57;1.47;;;;;;;22.09;31.61;100217.25;1884958;75;28246;-60
2023/01/24 05:34:19;;;;;;;1.37;1.37;;;;;;;22.11;31.63;100220.61;1872254;75;28211;-61
2023/01/24 05:37:08;;;;;;;1.60;1.50;;;;;;;22.12;31.62;100230.52;1892301;74;28120;-60
2023/01/24 05:39:59;;;;;;;1.35;1.32;;;;;;;22.15;31.58;100226.52;1884941;74;28196;-60
2023/01/24 05:42:48;;;;;;;1.60;1.50;;;;;;;22.16;31.52;100237.75;1872193;75;28285;-60
2023/01/24 05:45:37;;;;;;;1.50;1.40;;;;;;;22.19;31.51;100245.02;1871932;75;28311;-60
2023/01/24 05:48:25;;;;;;;1.57;1.47;;;;;;;22.21;31.41;100244.80;1879108;75;28275;-61
2023/01/24 05:51:17;;;;;;;1.50;1.40;;;;;;;22.20;31.42;100242.58;1871003;75;33176;-61
2023/01/24 05:54:06;;;;;;;1.72;1.60;;;;;;;22.21;31.39;100251.13;1893856;75;28129;-60
2023/01/24 05:57:05;;;;;;;5.70;1.60;;;;;;;22.21;31.42;100247.53;1877246;74;28143;-60
2023/01/24 05:59:55;;;;;;;1.50;1.40;;;;;;;22.19;31.36;100255.13;1895959;75;28160;-60
2023/01/24 06:02:43;;;;;;;1.30;1.20;;;;;;;22.20;31.45;100264.47;1882643;75;28502;-60
2023/01/24 06:05:32;;;;;;;1.95;1.52;;;;;;;22.23;31.44;100272.78;1884427;74;28242;-60
2023/01/24 06:08:22;;;;;;;2.05;1.47;;;;;;;22.24;31.37;100260.25;1894296;74;28188;-60
2023/01/24 06:11:14;;;;;;;1.45;1.40;;;;;;;22.24;31.34;100269.83;1874072;75;28199;-61
2023/01/24 06:14:02;;;;;;;1.50;1.40;;;;;;;22.27;31.35;100276.77;1905320;74;28106;-58
2023/01/24 06:16:51;;;;;;;1.42;1.37;;;;;;;22.28;31.39;100280.69;1832725;77;28447;-61
2023/01/24 06:19:41;;;;;;;1.70;1.60;;;;;;;22.27;31.32;100282.24;1820927;77;28257;-61
2023/01/24 06:22:33;;;;;;;1.52;1.42;;;;;;;22.26;31.29;100281.95;1795199;79;28406;-60
2023/01/24 06:25:24;;;;;;;1.70;1.60;;;;;;;22.27;31.29;100281.72;1853393;76;28204;-60
2023/01/24 06:28:14;;;;;;;1.72;1.62;;;;;;;22.27;31.28;100300.03;1856199;76;28244;-60
2023/01/24 06:31:20;;;;;;;2.00;1.90;;;;;;;22.27;31.23;100295.93;1857472;76;32092;-60
2023/01/24 06:34:31;;;;;;;1.60;1.50;;;;;;;22.27;31.24;100302.25;1849388;76;28267;-60
2023/01/24 06:37:39;;;;;;;1.30;1.30;;;;;;;22.23;31.32;100307.84;1843531;76;28215;-62
2023/01/24 06:40:27;;;;;;;1.37;1.37;;;;;;;22.20;31.39;100308.26;1858991;76;28536;-61
2023/01/24 06:43:17;;;;;;;1.70;1.60;;;;;;;22.20;31.34;100321.94;1849195;76;28178;-61
2023/01/24 06:46:05;;;;;;;1.60;1.50;;;;;;;22.22;31.33;100323.12;1847832;76;28232;-61
2023/01/24 06:48:53;;;;;;;2.00;1.90;;;;;;;22.42;30.84;100332.98;1855089;76;28175;-60
2023/01/24 06:51:42;;;;;;;2.00;1.90;;;;;;;22.42;30.03;100332.98;1861151;76;28341;-61
2023/01/24 06:54:30;;;;;;;1.87;1.77;;;;;;;22.52;30.09;100344.88;1860579;76;28313;-64
2023/01/24 06:57:18;;;;;;;1.60;1.50;;;;;;;22.54;30.30;100343.57;1858776;75;28387;-63
2023/01/24 07:00:08;;;;;;;1.80;1.50;;;;;;;22.55;30.37;100350.74;1856906;76;28255;-62
2023/01/24 07:03:01;;;;;;;1.50;1.47;;;;;;;22.59;30.36;100353.91;1860303;76;28233;-62
2023/01/24 07:05:49;;;;;;;1.72;1.62;;;;;;;22.58;30.35;100354.95;1855028;76;28309;-61
2023/01/24 07:08:38;;;;;;;1.70;1.60;;;;;;;22.58;30.37;100361.80;1848510;76;28381;-62
2023/01/24 07:11:26;;;;;;;1.70;1.60;;;;;;;22.58;30.37;100357.17;1863671;75;28112;-61
2023/01/24 07:14:14;;;;;;;1.80;1.60;;;;;;;22.58;30.43;100361.80;1856254;76;28137;-61
2023/01/24 07:17:04;;;;;;;1.70;1.60;;;;;;;22.56;30.49;100363.91;1843142;76;28264;-64
2023/01/24 07:19:53;;;;;;;1.72;1.62;;;;;;;22.53;30.63;100376.66;1859764;76;28246;-60
2023/01/24 07:22:43;;;;;;;1.83;1.60;;;;;;;22.52;30.77;100380.47;1856507;75;28238;-59
2023/01/24 07:25:36;;;;;;;1.70;1.60;;;;;;;22.55;30.75;100378.12;1878463;75;28158;-61
2023/01/24 07:28:23;;;;;;;2.05;1.60;;;;;;;22.53;30.83;100381.61;1870428;75;28226;-58
2023/01/24 07:31:14;;;;;;;1.98;1.60;;;;;;;22.53;30.88;100385.72;1876536;75;28171;-59
2023/01/24 07:34:03;;;;;;;1.62;1.52;;;;;;;22.52;30.82;100401.00;1875084;75;28201;-60
2023/01/24 07:36:51;;;;;;;1.70;1.60;;;;;;;22.46;31.26;100391.72;1826563;77;28188;-57
2023/01/24 07:39:39;;;;;;;1.72;1.62;;;;;;;22.46;31.26;100391.72;1884185;75;28279;-59
2023/01/24 07:42:28;;;;;;;1.60;1.50;;;;;;;22.50;30.89;100397.60;1884747;74;28187;-58
2023/01/24 07:45:17;;;;;;;1.70;1.57;;;;;;;22.50;30.87;100409.92;1859253;74;28214;-57
2023/01/24 07:48:07;;;;;;;1.67;1.57;;;;;;;22.47;30.95;100410.37;1862085;75;28154;-59
2023/01/24 07:51:00;;;;;;;1.90;1.60;;;;;;;22.47;31.01;100413.95;1855599;76;28291;-58
2023/01/24 07:53:49;;;;;;;1.77;1.67;;;;;;;22.49;30.99;100427.42;1787070;79;28479;-59
2023/01/24 07:56:37;;;;;;;1.65;1.55;;;;;;;22.50;30.96;100423.09;1875642;75;28129;-59
2023/01/24 07:59:26;;;;;;;1.50;1.47;;;;;;;22.52;30.92;100422.91;1873557;75;28104;-60
2023/01/24 08:02:14;;;;;;;1.30;1.30;;;;;;;22.49;30.94;100425.53;1878175;75;28309;-60
2023/01/24 08:05:02;;;;;;;1.30;1.30;;;;;;;22.48;30.95;100422.47;1873503;75;28191;-60
2023/01/24 08:07:51;;;;;;;1.70;1.60;;;;;;;22.45;30.98;100424.80;1876243;75;28099;-59
2023/01/24 08:10:40;;;;;;;1.40;1.30;;;;;;;22.46;30.94;100430.58;1859944;76;28339;-59
2023/01/24 08:13:28;;;;;;;2.05;1.50;;;;;;;22.39;30.98;100428.36;1858964;75;28160;-59
2023/01/24 08:16:17;;;;;;;1.45;1.40;;;;;;;22.45;31.02;100441.23;1856827;75;28301;-58
2023/01/24 08:19:05;;;;;;;2.00;1.60;;;;;;;22.43;31.03;100436.46;1859665;75;28176;-59
2023/01/24 08:21:54;;;;;;;1.55;1.45;;;;;;;22.43;31.06;100443.30;1851916;76;28263;-58
2023/01/24 08:24:42;;;;;;;1.55;1.50;;;;;;;22.45;31.01;100439.86;1887237;75;28121;-59
2023/01/24 08:27:30;;;;;;;1.72;1.57;;;;;;;22.43;31.06;100451.52;1883585;75;28184;-61
2023/01/24 08:30:19;;;;;;;1.70;1.60;;;;;;;22.43;31.06;100446.05;1891047;75;28181;-59
2023/01/24 08:33:15;;;;;;;1.60;1.50;;;;;;;22.43;31.06;100455.62;1882199;75;28219;-59
2023/01/24 08:36:00;;;;;;;1.43;1.33;;;;;;;22.41;31.07;100458.58;1877419;75;28210;-59
2023/01/24 08:38:48;;;;;;;1.30;1.30;;;;;;;22.41;31.08;100471.42;1883783;74;28193;-58
2023/01/24 08:41:36;;;;;;;1.40;1.40;;;;;;;22.40;31.10;100476.60;1874771;75;28345;-60
2023/01/24 08:44:24;;;;;;;1.60;1.50;;;;;;;22.41;31.12;100481.00;1880974;75;28245;-59
2023/01/24 08:47:12;;;;;;;1.50;1.47;;;;;;;22.41;31.09;100484.59;1877298;75;28105;-59
2023/01/24 08:50:01;;;;;;;1.80;1.60;;;;;;;22.41;31.10;100495.55;1890280;75;28393;-59
2023/01/24 08:52:50;;;;;;;2.75;1.55;;;;;;;22.40;31.09;100484.30;1900891;74;28133;-59
2023/01/24 08:55:38;;;;;;;2.60;1.67;;;;;;;22.41;31.06;100486.48;1871992;75;28184;-60
2023/01/24 08:58:27;;;;;;;2.45;1.70;;;;;;;22.43;31.01;100482.48;1887761;75;28292;-60
2023/01/24 09:01:15;;;;;;;1.55;1.45;;;;;;;22.42;31.00;100491.77;1890716;75;28153;-59
2023/01/24 09:04:04;;;;;;;1.65;1.55;;;;;;;22.42;31.01;100489.55;1889482;75;28092;-60
2023/01/24 09:06:53;;;;;;;1.80;1.70;;;;;;;22.41;31.02;100485.11;1877664;75;28120;-59
2023/01/24 09:09:42;;;;;;;1.67;1.57;;;;;;;22.39;31.02;100486.70;1897234;75;28301;-59
2023/01/24 09:12:31;;;;;;;1.70;1.60;;;;;;;22.40;30.96;100477.97;1885918;75;28272;-58
2023/01/24 09:15:20;;;;;;;1.70;1.60;;;;;;;22.41;30.93;100479.64;1885199;74;28164;-58
2023/01/24 09:18:08;;;;;;;1.70;1.60;;;;;;;22.42;30.91;100475.34;1871494;75;28178;-58
2023/01/24 09:21:02;;;;;;;1.80;1.70;;;;;;;22.39;30.93;100474.38;1868928;75;28214;-58
2023/01/24 09:23:52;;;;;;;1.77;1.67;;;;;;;22.41;30.94;100477.75;1899783;75;28176;-59
2023/01/24 09:26:42;;;;;;;1.70;1.60;;;;;;;22.42;30.96;100486.81;1880672;75;28251;-59
2023/01/24 09:29:30;;;;;;;1.60;1.50;;;;;;;22.40;30.98;100487.03;1900720;74;28110;-59
2023/01/24 09:32:19;;;;;;;1.50;1.40;;;;;;;22.41;30.97;100490.59;1902619;74;28107;-59
2023/01/24 09:35:08;;;;;;;1.80;1.70;;;;;;;22.41;30.98;100496.91;1875889;75;28199;-59
2023/01/24 09:37:56;;;;;;;1.70;1.60;;;;;;;22.41;31.01;100497.43;1885106;75;28250;-59
2023/01/24 09:40:47;;;;;;;1.40;1.30;;;;;;;22.38;31.03;100494.58;1891534;75;28112;-59
2023/01/24 09:43:47;;;;;;;2.47;1.70;;;;;;;22.37;31.03;100498.91;1893106;75;28685;-60
2023/01/24 09:46:45;;;;;;;1.67;1.57;;;;;;;22.41;31.03;100505.64;1896437;75;28124;-59
2023/01/24 09:49:39;;;;;;;1.67;1.57;;;;;;;22.37;31.04;100502.50;1878351;75;28297;-58
2023/01/24 09:52:33;;;;;;;1.82;1.72;;;;;;;22.37;31.09;100500.28;1870339;75;28163;-58
2023/01/24 09:55:34;;;;;;;1.90;1.80;;;;;;;22.36;31.10;100510.38;1894678;75;28247;-60
2023/01/24 09:58:31;;;;;;;1.80;1.70;;;;;;;22.38;31.08;100519.77;1884140;75;28113;-59
2023/01/24 10:01:20;;;;;;;1.50;1.40;;;;;;;22.36;31.10;100513.63;1882825;75;28311;-60
2023/01/24 10:04:15;;;;;;;1.87;1.77;;;;;;;22.35;31.09;100505.97;1877591;75;28239;-59
2023/01/24 10:07:36;;;;;;;1.62;1.52;;;;;;;22.36;31.10;100514.48;1871671;75;28687;-59
2023/01/24 10:10:36;;;;;;;1.60;1.50;;;;;;;22.38;31.07;100519.22;1881399;75;28386;-58
2023/01/24 10:13:28;;;;;;;2.10;1.72;;;;;;;22.32;31.14;100514.59;1878060;75;28217;-58
2023/01/24 10:16:28;;;;;;;1.65;1.55;;;;;;;22.33;31.14;100512.70;1873256;75;28249;-59
2023/01/24 10:19:25;;;;;;;2.00;1.85;;;;;;;22.36;31.12;100506.27;1889287;75;28369;-60
2023/01/24 10:22:38;;;;;;;1.70;1.60;;;;;;;22.36;31.07;100502.69;1892865;75;28268;-60
2023/01/24 10:25:35;;;;;;;1.70;1.60;;;;;;;22.34;30.91;100493.84;1886459;75;28190;-60
2023/01/24 10:28:27;;;;;;;1.90;1.80;;;;;;;22.33;31.13;100489.44;1894070;75;28231;-59
2023/01/24 10:31:33;;;;;;;1.82;1.72;;;;;;;22.30;31.15;100478.38;1868183;76;28170;-60
2023/01/24 10:34:36;;;;;;;1.75;1.65;;;;;;;22.35;31.12;100484.59;1873991;75;28259;-59
2023/01/24 10:37:31;;;;;;;1.70;1.60;;;;;;;22.32;31.15;100479.01;1900319;75;28292;-59
2023/01/24 10:40:19;;;;;;;1.70;1.60;;;;;;;22.30;31.20;100483.00;1887106;75;28102;-59
2023/01/24 10:43:08;;;;;;;1.80;1.65;;;;;;;22.31;31.16;100471.84;1888943;74;28112;-60
2023/01/24 10:46:00;;;;;;;1.80;1.70;;;;;;;22.33;31.17;100473.02;1888575;75;28168;-58
2023/01/24 10:48:51;;;;;;;1.70;1.60;;;;;;;22.34;31.10;100465.10;1887486;74;28113;-60
2023/01/24 10:51:40;;;;;;;1.90;1.80;;;;;;;22.36;31.13;100476.68;1868221;74;28353;-60
2023/01/24 10:54:28;;;;;;;1.75;1.65;;;;;;;22.36;31.12;100473.94;1889337;74;28174;-59
2023/01/24 10:57:32;;;;;;;1.77;1.67;;;;;;;22.38;31.07;100473.23;1880045;75;31132;-60
2023/01/24 11:00:25;;;;;;;1.97;1.70;;;;;;;22.40;31.08;100482.08;1886292;75;28351;-59
2023/01/24 11:03:20;;;;;;;1.80;1.50;;;;;;;22.34;31.10;100476.90;1877512;75;28156;-59
2023/01/24 11:06:26;;;;;;;1.80;1.70;;;;;;;22.36;31.14;100476.68;1868676;76;28106;-60
2023/01/24 11:09:19;;;;;;;1.82;1.72;;;;;;;22.38;31.09;100483.63;1895857;75;28197;-59
2023/01/24 11:12:10;;;;;;;1.77;1.67;;;;;;;22.34;31.13;100483.75;1879490;74;28302;-59
2023/01/24 11:14:58;;;;;;;1.82;1.72;;;;;;;22.33;31.15;100481.23;1874748;75;28310;-59
2023/01/24 11:17:47;;;;;;;1.90;1.80;;;;;;;22.35;31.11;100486.81;1890312;75;28117;-59
2023/01/24 11:20:37;;;;;;;1.90;1.80;;;;;;;22.37;31.08;100489.33;1881562;75;28154;-60
2023/01/24 11:23:27;;;;;;;1.65;1.60;;;;;;;22.37;31.05;100486.59;1881016;75;28298;-58
2023/01/24 11:26:24;;;;;;;1.80;1.70;;;;;;;22.36;31.10;100485.73;1884005;75;28258;-59
2023/01/24 11:29:18;;;;;;;1.90;1.80;;;;;;;22.39;31.09;100487.22;1827506;75;28165;-59
2023/01/24 11:32:31;;;;;;;1.60;1.50;;;;;;;22.40;31.06;100482.08;1885280;75;28162;-59
2023/01/24 11:35:37;;;;;;;1.95;1.85;;;;;;;22.40;31.05;100473.34;1864409;75;38666;-59
2023/01/24 11:38:31;;;;;;;1.80;1.70;;;;;;;22.34;31.10;100465.95;1887600;75;28234;-60
2023/01/24 11:41:26;;;;;;;2.20;1.60;;;;;;;22.34;31.09;100465.10;1856705;77;28249;-60
2023/01/24 11:44:33;;;;;;;1.82;1.72;;;;;;;22.34;31.10;100455.00;1880947;75;28721;-59
2023/01/24 11:47:25;;;;;;;1.80;1.70;;;;;;;22.35;31.11;100449.01;1886270;75;28296;-60
2023/01/24 11:50:20;;;;;;;1.90;1.80;;;;;;;22.33;31.12;100442.38;1872359;75;28328;-60
2023/01/24 11:53:26;;;;;;;1.90;1.80;;;;;;;22.36;31.11;100443.31;1856638;75;28158;-59
2023/01/24 11:56:43;;;;;;;2.15;2.05;;;;;;;22.37;31.12;100437.31;1868692;76;28355;-60
2023/01/24 11:59:54;;;;;;;1.70;1.60;;;;;;;22.35;31.12;100433.44;1864754;75;28262;-60
2023/01/24 12:03:04;;;;;;;1.80;1.70;;;;;;;22.30;31.11;100422.27;1856545;77;29020;-58
2023/01/24 12:05:56;;;;;;;2.00;1.90;;;;;;;22.30;31.17;100414.58;1868579;76;28122;-59
2023/01/24 12:08:50;;;;;;;2.92;2.70;;;;;;;22.29;31.20;100402.78;1897686;75;28136;-59
2023/01/24 12:11:51;;;;;;;1.72;1.62;;;;;;;22.30;31.14;100400.89;1865531;75;28260;-59
2023/01/24 12:14:51;;;;;;;1.72;1.67;;;;;;;22.31;31.17;100400.67;1891915;75;28254;-59
2023/01/24 12:17:58;;;;;;;2.00;1.90;;;;;;;22.30;31.14;100389.94;1903432;74;28117;-58
2023/01/24 12:20:58;;;;;;;2.00;1.90;;;;;;;22.33;31.14;100391.75;1882946;74;28126;-60
2023/01/24 12:23:59;;;;;;;1.87;1.77;;;;;;;22.30;31.13;100390.79;1885661;75;28105;-59
2023/01/24 12:26:50;;;;;;;1.75;1.65;;;;;;;22.32;31.15;100392.78;1875945;75;28192;-59
2023/01/24 12:29:45;;;;;;;1.80;1.70;;;;;;;22.33;31.09;100393.64;1884170;75;28266;-59
2023/01/24 12:32:48;;;;;;;2.10;1.92;;;;;;;22.34;31.08;100392.56;1863446;75;28203;-60
2023/01/24 12:35:40;;;;;;;1.90;1.80;;;;;;;22.36;31.09;100393.19;1804262;79;28360;-60
2023/01/24 12:38:40;;;;;;;2.00;1.90;;;;;;;22.35;31.08;100385.53;1877853;75;28154;-58
2023/01/24 12:41:36;;;;;;;1.72;1.62;;;;;;;22.37;31.04;100382.05;1875802;75;28122;-59
2023/01/24 12:44:40;;;;;;;1.93;1.83;;;;;;;22.37;31.08;100381.20;1876067;75;28172;-57
2023/01/24 12:47:37;;;;;;;1.98;1.85;;;;;;;22.35;31.07;100384.16;1879800;75;28178;-60
2023/01/24 12:50:36;;;;;;;1.87;1.77;;;;;;;22.34;31.09;100378.88;1879328;75;28156;-59
2023/01/24 12:53:30;;;;;;;1.90;1.80;;;;;;;22.33;31.09;100373.11;1873708;75;28223;-59
2023/01/24 12:56:24;;;;;;;1.98;1.87;;;;;;;22.32;31.12;100374.14;1880211;75;28240;-59
2023/01/24 12:59:16;;;;;;;2.10;1.90;;;;;;;22.33;31.11;100377.21;1871331;75;28202;-60
2023/01/24 13:02:37;;;;;;;2.05;1.95;;;;;;;22.35;31.08;100383.31;1860258;76;28164;-59
2023/01/24 13:05:37;;;;;;;1.80;1.70;;;;;;;22.38;31.07;100381.53;1877657;75;28244;-59
2023/01/24 13:08:37;;;;;;;1.95;1.85;;;;;;;22.32;31.10;100390.56;1862778;75;28218;-59
2023/01/24 13:11:28;;;;;;;1.87;1.77;;;;;;;22.32;31.09;100391.94;1862082;76;28218;-59
2023/01/24 13:14:38;;;;;;;1.98;1.87;;;;;;;22.32;31.12;100393.30;1862623;76;28305;-59
2023/01/24 13:17:50;;;;;;;1.60;1.50;;;;;;;22.35;31.08;100388.78;1875057;75;28641;-60
2023/01/24 13:21:02;;;;;;;2.00;1.90;;;;;;;22.31;31.12;100389.72;1874471;75;28229;-60
2023/01/24 13:24:03;;;;;;;2.17;1.98;;;;;;;22.31;31.14;100388.35;1869213;76;32096;-61
2023/01/24 13:27:13;;;;;;;2.12;2.02;;;;;;;22.28;31.15;100382.47;1839339;76;28219;-59
2023/01/24 13:30:20;;;;;;;1.90;1.80;;;;;;;22.27;31.24;100384.36;1872214;76;28294;-59
2023/01/24 13:33:11;;;;;;;1.90;1.80;;;;;;;22.28;31.19;100383.32;1874566;76;28125;-60
2023/01/24 13:36:02;;;;;;;1.80;1.70;;;;;;;22.27;31.20;100383.52;1872831;76;28313;-60
2023/01/24 13:38:52;;;;;;;2.08;1.98;;;;;;;22.32;31.19;100387.83;1896597;75;28125;-60
2023/01/24 13:41:40;;;;;;;1.82;1.72;;;;;;;22.32;31.13;100391.42;1886561;75;28198;-59
2023/01/24 13:44:33;;;;;;;1.82;1.72;;;;;;;22.33;31.09;100389.53;1874446;76;28156;-59
2023/01/24 13:47:24;;;;;;;1.72;1.62;;;;;;;22.34;31.09;100391.19;1876642;76;28327;-59
2023/01/24 13:50:18;;;;;;;1.87;1.77;;;;;;;22.36;31.11;100389.08;1876167;76;33536;-59
2023/01/24 13:53:09;;;;;;;1.90;1.80;;;;;;;22.36;31.10;100391.30;1875490;76;28464;-59
2023/01/24 13:56:03;;;;;;;1.80;1.70;;;;;;;22.36;31.06;100396.78;1875600;76;28388;-59
2023/01/24 13:58:54;;;;;;;2.10;2.00;;;;;;;22.30;31.05;100383.95;1872322;76;28648;-59
2023/01/24 14:01:46;;;;;;;1.80;1.70;;;;;;;22.38;31.06;100400.14;1893854;75;28198;-60
2023/01/24 14:04:45;;;;;;;1.90;1.80;;;;;;;22.35;31.02;100398.37;1875906;76;28126;-60